sensor_id;sensor_type;location;lat;lon;timestamp;P1;durP1;ratioP1;P2;durP2;ratioP2
52126;SDS011;38120;53.176;6.614;2024-01-16T00:02:11;7.80;;;2.40;;
52126;SDS011;38120;53.176;6.614;2024-01-16T00:04:37;5.87;;;2.53;;
52126;SDS011;38120;53.176;6.614;2024-01-16T00:07:03;9.65;;;2.20;;
52126;SDS011;38120;53.176;6.614;2024-01-16T00:09:32;5.55;;;2.13;;
52126;SDS011;38120;53.176;6.614;2024-01-16T00:11:59;9.27;;;2.53;;
52126;SDS011;38120;53.176;6.614;2024-01-16T00:14:25;7.18;;;2.20;;
52126;SDS011;38120;53.176;6.614;2024-01-16T00:16:51;9.13;;;2.40;;
52126;SDS011;38120;53.176;6.614;2024-01-16T00:19:16;6.88;;;2.90;;
52126;SDS011;38120;53.176;6.614;2024-01-16T00:21:42;6.07;;;2.47;;
52126;SDS011;38120;53.176;6.614;2024-01-16T00:24:11;10.82;;;2.80;;
52126;SDS011;38120;53.176;6.614;2024-01-16T00:26:37;7.88;;;2.60;;
52126;SDS011;38120;53.176;6.614;2024-01-16T00:29:03;13.93;;;2.45;;
52126;SDS011;38120;53.176;6.614;2024-01-16T00:31:29;7.50;;;2.13;;
52126;SDS011;38120;53.176;6.614;2024-01-16T00:33:54;11.07;;;2.67;;
52126;SDS011;38120;53.176;6.614;2024-01-16T00:36:20;7.40;;;2.37;;
52126;SDS011;38120;53.176;6.614;2024-01-16T00:38:46;9.00;;;1.90;;
52126;SDS011;38120;53.176;6.614;2024-01-16T00:41:12;5.85;;;1.95;;
52126;SDS011;38120;53.176;6.614;2024-01-16T00:43:40;7.15;;;2.28;;
52126;SDS011;38120;53.176;6.614;2024-01-16T00:46:06;4.60;;;1.27;;
52126;SDS011;38120;53.176;6.614;2024-01-16T00:48:32;3.85;;;1.63;;
52126;SDS011;38120;53.176;6.614;2024-01-16T00:50:58;3.33;;;1.10;;
52126;SDS011;38120;53.176;6.614;2024-01-16T00:53:23;5.33;;;1.77;;
52126;SDS011;38120;53.176;6.614;2024-01-16T00:55:49;6.00;;;1.50;;
52126;SDS011;38120;53.176;6.614;2024-01-16T00:58:17;6.10;;;2.40;;
52126;SDS011;38120;53.176;6.614;2024-01-16T01:00:42;2.07;;;0.97;;
52126;SDS011;38120;53.176;6.614;2024-01-16T01:03:08;5.80;;;1.47;;
52126;SDS011;38120;53.176;6.614;2024-01-16T01:05:34;2.07;;;1.23;;
52126;SDS011;38120;53.176;6.614;2024-01-16T01:07:59;4.97;;;1.33;;
52126;SDS011;38120;53.176;6.614;2024-01-16T01:10:25;6.70;;;1.40;;
52126;SDS011;38120;53.176;6.614;2024-01-16T01:12:51;7.27;;;1.40;;
52126;SDS011;38120;53.176;6.614;2024-01-16T01:15:19;5.25;;;1.30;;
52126;SDS011;38120;53.176;6.614;2024-01-16T01:17:45;9.07;;;1.70;;
52126;SDS011;38120;53.176;6.614;2024-01-16T01:20:14;6.90;;;1.80;;
52126;SDS011;38120;53.176;6.614;2024-01-16T01:22:40;10.77;;;2.15;;
52126;SDS011;38120;53.176;6.614;2024-01-16T01:25:06;12.07;;;2.63;;
52126;SDS011;38120;53.176;6.614;2024-01-16T01:27:32;7.57;;;2.03;;
52126;SDS011;38120;53.176;6.614;2024-01-16T01:29:58;7.13;;;2.40;;
52126;SDS011;38120;53.176;6.614;2024-01-16T01:32:24;7.30;;;2.47;;
52126;SDS011;38120;53.176;6.614;2024-01-16T01:34:49;11.80;;;2.33;;
52126;SDS011;38120;53.176;6.614;2024-01-16T01:37:15;6.67;;;1.97;;
52126;SDS011;38120;53.176;6.614;2024-01-16T01:39:41;7.00;;;2.40;;
52126;SDS011;38120;53.176;6.614;2024-01-16T01:42:06;9.73;;;3.15;;
52126;SDS011;38120;53.176;6.614;2024-01-16T01:44:32;9.30;;;2.67;;
52126;SDS011;38120;53.176;6.614;2024-01-16T01:46:58;10.80;;;3.17;;
52126;SDS011;38120;53.176;6.614;2024-01-16T01:49:24;11.63;;;1.95;;
52126;SDS011;38120;53.176;6.614;2024-01-16T01:51:51;10.10;;;2.13;;
52126;SDS011;38120;53.176;6.614;2024-01-16T01:54:17;9.05;;;2.33;;
52126;SDS011;38120;53.176;6.614;2024-01-16T01:56:45;7.07;;;2.70;;
52126;SDS011;38120;53.176;6.614;2024-01-16T01:59:13;8.65;;;2.17;;
52126;SDS011;38120;53.176;6.614;2024-01-16T02:01:40;7.25;;;2.47;;
52126;SDS011;38120;53.176;6.614;2024-01-16T02:04:07;9.45;;;2.50;;
52126;SDS011;38120;53.176;6.614;2024-01-16T02:08:59;5.13;;;2.28;;
52126;SDS011;38120;53.176;6.614;2024-01-16T02:11:25;11.85;;;2.65;;
52126;SDS011;38120;53.176;6.614;2024-01-16T02:13:51;8.43;;;2.10;;
52126;SDS011;38120;53.176;6.614;2024-01-16T02:16:18;8.00;;;1.60;;
52126;SDS011;38120;53.176;6.614;2024-01-16T02:18:45;6.65;;;1.90;;
52126;SDS011;38120;53.176;6.614;2024-01-16T02:21:11;7.63;;;1.88;;
52126;SDS011;38120;53.176;6.614;2024-01-16T02:23:40;5.20;;;1.60;;
52126;SDS011;38120;53.176;6.614;2024-01-16T02:26:06;5.13;;;2.03;;
52126;SDS011;38120;53.176;6.614;2024-01-16T02:28:32;9.05;;;2.15;;
52126;SDS011;38120;53.176;6.614;2024-01-16T02:30:58;3.73;;;1.27;;
52126;SDS011;38120;53.176;6.614;2024-01-16T02:33:23;5.87;;;1.53;;
52126;SDS011;38120;53.176;6.614;2024-01-16T02:35:49;9.70;;;2.00;;
52126;SDS011;38120;53.176;6.614;2024-01-16T02:38:15;6.70;;;2.10;;
52126;SDS011;38120;53.176;6.614;2024-01-16T02:40:40;6.77;;;1.70;;
52126;SDS011;38120;53.176;6.614;2024-01-16T02:43:06;9.60;;;2.80;;
52126;SDS011;38120;53.176;6.614;2024-01-16T02:45:32;11.68;;;3.28;;
52126;SDS011;38120;53.176;6.614;2024-01-16T02:47:58;8.60;;;2.40;;
52126;SDS011;38120;53.176;6.614;2024-01-16T02:50:24;9.27;;;2.20;;
52126;SDS011;38120;53.176;6.614;2024-01-16T02:52:50;8.30;;;2.20;;
52126;SDS011;38120;53.176;6.614;2024-01-16T02:55:16;8.57;;;1.80;;
52126;SDS011;38120;53.176;6.614;2024-01-16T02:57:41;8.13;;;2.00;;
52126;SDS011;38120;53.176;6.614;2024-01-16T03:00:07;10.60;;;2.20;;
52126;SDS011;38120;53.176;6.614;2024-01-16T03:02:33;4.43;;;1.48;;
52126;SDS011;38120;53.176;6.614;2024-01-16T03:04:59;7.93;;;1.63;;
52126;SDS011;38120;53.176;6.614;2024-01-16T03:07:25;9.30;;;1.87;;
52126;SDS011;38120;53.176;6.614;2024-01-16T03:09:50;8.43;;;1.47;;
52126;SDS011;38120;53.176;6.614;2024-01-16T03:12:16;8.17;;;2.20;;
52126;SDS011;38120;53.176;6.614;2024-01-16T03:14:42;8.57;;;2.20;;
52126;SDS011;38120;53.176;6.614;2024-01-16T03:17:08;5.17;;;1.70;;
52126;SDS011;38120;53.176;6.614;2024-01-16T03:19:33;10.73;;;2.63;;
52126;SDS011;38120;53.176;6.614;2024-01-16T03:21:59;7.73;;;2.60;;
52126;SDS011;38120;53.176;6.614;2024-01-16T03:24:25;6.53;;;2.10;;
52126;SDS011;38120;53.176;6.614;2024-01-16T03:26:51;9.20;;;2.58;;
52126;SDS011;38120;53.176;6.614;2024-01-16T03:29:17;5.83;;;2.23;;
52126;SDS011;38120;53.176;6.614;2024-01-16T03:31:42;8.90;;;2.43;;
52126;SDS011;38120;53.176;6.614;2024-01-16T03:34:08;10.57;;;2.53;;
52126;SDS011;38120;53.176;6.614;2024-01-16T03:36:35;5.25;;;2.35;;
52126;SDS011;38120;53.176;6.614;2024-01-16T03:39:01;8.82;;;2.65;;
52126;SDS011;38120;53.176;6.614;2024-01-16T03:41:27;9.00;;;2.50;;
52126;SDS011;38120;53.176;6.614;2024-01-16T03:43:53;12.60;;;3.00;;
52126;SDS011;38120;53.176;6.614;2024-01-16T03:46:22;9.02;;;3.20;;
52126;SDS011;38120;53.176;6.614;2024-01-16T03:48:48;7.93;;;2.17;;
52126;SDS011;38120;53.176;6.614;2024-01-16T03:51:13;5.10;;;1.60;;
52126;SDS011;38120;53.176;6.614;2024-01-16T03:53:44;7.07;;;2.17;;
52126;SDS011;38120;53.176;6.614;2024-01-16T03:56:10;6.55;;;2.55;;
52126;SDS011;38120;53.176;6.614;2024-01-16T03:58:37;4.50;;;1.80;;
52126;SDS011;38120;53.176;6.614;2024-01-16T04:01:04;10.60;;;2.40;;
52126;SDS011;38120;53.176;6.614;2024-01-16T04:03:30;10.57;;;2.67;;
52126;SDS011;38120;53.176;6.614;2024-01-16T04:05:56;8.43;;;3.27;;
52126;SDS011;38120;53.176;6.614;2024-01-16T04:08:21;8.17;;;2.33;;
52126;SDS011;38120;53.176;6.614;2024-01-16T04:10:47;10.07;;;2.10;;
52126;SDS011;38120;53.176;6.614;2024-01-16T04:13:13;8.50;;;2.30;;
52126;SDS011;38120;53.176;6.614;2024-01-16T04:15:39;10.87;;;2.63;;
52126;SDS011;38120;53.176;6.614;2024-01-16T04:18:05;8.85;;;2.72;;
52126;SDS011;38120;53.176;6.614;2024-01-16T04:20:31;7.65;;;2.20;;
52126;SDS011;38120;53.176;6.614;2024-01-16T04:22:57;9.20;;;2.30;;
52126;SDS011;38120;53.176;6.614;2024-01-16T04:25:26;10.02;;;2.40;;
52126;SDS011;38120;53.176;6.614;2024-01-16T04:27:51;9.03;;;2.40;;
52126;SDS011;38120;53.176;6.614;2024-01-16T04:30:17;12.87;;;3.13;;
52126;SDS011;38120;53.176;6.614;2024-01-16T04:32:45;12.18;;;2.40;;
52126;SDS011;38120;53.176;6.614;2024-01-16T04:35:11;8.33;;;1.70;;
52126;SDS011;38120;53.176;6.614;2024-01-16T04:37:36;10.33;;;2.63;;
52126;SDS011;38120;53.176;6.614;2024-01-16T04:40:02;14.97;;;2.60;;
52126;SDS011;38120;53.176;6.614;2024-01-16T04:42:30;12.48;;;3.03;;
52126;SDS011;38120;53.176;6.614;2024-01-16T04:44:57;8.90;;;2.70;;
52126;SDS011;38120;53.176;6.614;2024-01-16T04:47:23;8.32;;;2.75;;
52126;SDS011;38120;53.176;6.614;2024-01-16T04:49:48;7.70;;;2.47;;
52126;SDS011;38120;53.176;6.614;2024-01-16T04:52:14;11.83;;;2.60;;
52126;SDS011;38120;53.176;6.614;2024-01-16T04:54:40;10.20;;;3.08;;
52126;SDS011;38120;53.176;6.614;2024-01-16T04:57:06;9.13;;;2.70;;
52126;SDS011;38120;53.176;6.614;2024-01-16T04:59:32;7.13;;;2.10;;
52126;SDS011;38120;53.176;6.614;2024-01-16T05:01:57;7.00;;;2.53;;
52126;SDS011;38120;53.176;6.614;2024-01-16T05:04:23;7.40;;;1.97;;
52126;SDS011;38120;53.176;6.614;2024-01-16T05:06:51;7.90;;;2.17;;
52126;SDS011;38120;53.176;6.614;2024-01-16T05:09:17;9.20;;;2.13;;
52126;SDS011;38120;53.176;6.614;2024-01-16T05:11:45;11.13;;;2.63;;
52126;SDS011;38120;53.176;6.614;2024-01-16T05:14:11;8.75;;;2.63;;
52126;SDS011;38120;53.176;6.614;2024-01-16T05:16:36;8.87;;;2.47;;
52126;SDS011;38120;53.176;6.614;2024-01-16T05:19:02;10.80;;;2.50;;
52126;SDS011;38120;53.176;6.614;2024-01-16T05:21:28;7.18;;;2.10;;
52126;SDS011;38120;53.176;6.614;2024-01-16T05:23:54;9.23;;;2.70;;
52126;SDS011;38120;53.176;6.614;2024-01-16T05:26:19;12.97;;;2.93;;
52126;SDS011;38120;53.176;6.614;2024-01-16T05:28:45;11.20;;;3.03;;
52126;SDS011;38120;53.176;6.614;2024-01-16T05:31:11;8.47;;;2.93;;
52126;SDS011;38120;53.176;6.614;2024-01-16T05:33:36;8.80;;;2.80;;
52126;SDS011;38120;53.176;6.614;2024-01-16T05:36:02;8.43;;;2.73;;
52126;SDS011;38120;53.176;6.614;2024-01-16T05:38:28;11.13;;;3.07;;
52126;SDS011;38120;53.176;6.614;2024-01-16T05:40:53;10.17;;;2.77;;
52126;SDS011;38120;53.176;6.614;2024-01-16T05:43:19;7.00;;;2.60;;
52126;SDS011;38120;53.176;6.614;2024-01-16T05:45:45;10.57;;;2.77;;
52126;SDS011;38120;53.176;6.614;2024-01-16T05:48:10;9.93;;;3.13;;
52126;SDS011;38120;53.176;6.614;2024-01-16T05:50:37;8.25;;;3.08;;
52126;SDS011;38120;53.176;6.614;2024-01-16T05:53:02;11.70;;;2.70;;
52126;SDS011;38120;53.176;6.614;2024-01-16T05:55:28;13.17;;;2.67;;
52126;SDS011;38120;53.176;6.614;2024-01-16T05:57:57;11.98;;;2.65;;
52126;SDS011;38120;53.176;6.614;2024-01-16T06:00:24;12.20;;;3.15;;
52126;SDS011;38120;53.176;6.614;2024-01-16T06:02:50;11.60;;;2.90;;
52126;SDS011;38120;53.176;6.614;2024-01-16T06:05:15;6.60;;;2.77;;
52126;SDS011;38120;53.176;6.614;2024-01-16T06:07:41;13.53;;;3.70;;
52126;SDS011;38120;53.176;6.614;2024-01-16T06:10:07;10.30;;;2.57;;
52126;SDS011;38120;53.176;6.614;2024-01-16T06:12:33;10.00;;;2.85;;
52126;SDS011;38120;53.176;6.614;2024-01-16T06:14:59;12.05;;;2.75;;
52126;SDS011;38120;53.176;6.614;2024-01-16T06:17:25;9.07;;;2.78;;
52126;SDS011;38120;53.176;6.614;2024-01-16T06:19:51;11.00;;;3.13;;
52126;SDS011;38120;53.176;6.614;2024-01-16T06:22:17;8.60;;;2.45;;
52126;SDS011;38120;53.176;6.614;2024-01-16T06:24:42;16.17;;;3.30;;
52126;SDS011;38120;53.176;6.614;2024-01-16T06:27:08;9.17;;;3.07;;
52126;SDS011;38120;53.176;6.614;2024-01-16T06:29:34;6.80;;;2.87;;
52126;SDS011;38120;53.176;6.614;2024-01-16T06:32:00;13.43;;;3.13;;
52126;SDS011;38120;53.176;6.614;2024-01-16T06:34:26;9.88;;;2.50;;
52126;SDS011;38120;53.176;6.614;2024-01-16T06:36:52;10.63;;;3.00;;
52126;SDS011;38120;53.176;6.614;2024-01-16T06:39:18;9.25;;;2.42;;
52126;SDS011;38120;53.176;6.614;2024-01-16T06:41:44;7.93;;;2.90;;
52126;SDS011;38120;53.176;6.614;2024-01-16T06:44:09;12.33;;;3.07;;
52126;SDS011;38120;53.176;6.614;2024-01-16T06:46:35;7.20;;;3.40;;
52126;SDS011;38120;53.176;6.614;2024-01-16T06:49:01;12.15;;;3.10;;
52126;SDS011;38120;53.176;6.614;2024-01-16T06:51:27;9.52;;;3.20;;
52126;SDS011;38120;53.176;6.614;2024-01-16T06:53:53;11.93;;;3.50;;
52126;SDS011;38120;53.176;6.614;2024-01-16T06:56:18;10.33;;;2.97;;
52126;SDS011;38120;53.176;6.614;2024-01-16T06:58:44;7.95;;;2.90;;
52126;SDS011;38120;53.176;6.614;2024-01-16T07:01:10;11.97;;;2.60;;
52126;SDS011;38120;53.176;6.614;2024-01-16T07:03:36;8.37;;;2.67;;
52126;SDS011;38120;53.176;6.614;2024-01-16T07:06:02;9.07;;;2.40;;
52126;SDS011;38120;53.176;6.614;2024-01-16T07:08:28;10.57;;;3.17;;
52126;SDS011;38120;53.176;6.614;2024-01-16T07:10:54;12.60;;;2.97;;
52126;SDS011;38120;53.176;6.614;2024-01-16T07:13:19;9.43;;;2.80;;
52126;SDS011;38120;53.176;6.614;2024-01-16T07:15:45;9.27;;;2.47;;
52126;SDS011;38120;53.176;6.614;2024-01-16T07:18:11;6.73;;;2.27;;
52126;SDS011;38120;53.176;6.614;2024-01-16T07:20:36;8.43;;;2.47;;
52126;SDS011;38120;53.176;6.614;2024-01-16T07:23:03;6.67;;;2.40;;
52126;SDS011;38120;53.176;6.614;2024-01-16T07:25:29;10.25;;;3.05;;
52126;SDS011;38120;53.176;6.614;2024-01-16T07:27:56;8.65;;;3.05;;
52126;SDS011;38120;53.176;6.614;2024-01-16T07:30:21;6.73;;;3.07;;
52126;SDS011;38120;53.176;6.614;2024-01-16T07:32:47;7.10;;;2.47;;
52126;SDS011;38120;53.176;6.614;2024-01-16T07:35:13;12.55;;;2.78;;
52126;SDS011;38120;53.176;6.614;2024-01-16T07:37:39;7.67;;;2.27;;
52126;SDS011;38120;53.176;6.614;2024-01-16T07:40:05;10.02;;;2.58;;
52126;SDS011;38120;53.176;6.614;2024-01-16T07:42:32;10.35;;;2.22;;
52126;SDS011;38120;53.176;6.614;2024-01-16T07:45:03;7.93;;;2.22;;
52126;SDS011;38120;53.176;6.614;2024-01-16T07:47:32;6.25;;;1.88;;
52126;SDS011;38120;53.176;6.614;2024-01-16T07:49:59;7.18;;;1.98;;
52126;SDS011;38120;53.176;6.614;2024-01-16T07:52:26;7.20;;;2.10;;
52126;SDS011;38120;53.176;6.614;2024-01-16T07:54:55;10.60;;;1.90;;
52126;SDS011;38120;53.176;6.614;2024-01-16T07:57:21;7.60;;;2.55;;
52126;SDS011;38120;53.176;6.614;2024-01-16T07:59:47;10.60;;;3.10;;
52126;SDS011;38120;53.176;6.614;2024-01-16T08:02:15;7.40;;;2.15;;
52126;SDS011;38120;53.176;6.614;2024-01-16T08:04:42;10.20;;;2.45;;
52126;SDS011;38120;53.176;6.614;2024-01-16T08:07:10;10.30;;;2.50;;
52126;SDS011;38120;53.176;6.614;2024-01-16T08:09:36;9.35;;;2.38;;
52126;SDS011;38120;53.176;6.614;2024-01-16T08:12:02;5.40;;;2.37;;
52126;SDS011;38120;53.176;6.614;2024-01-16T08:14:31;6.35;;;2.40;;
52126;SDS011;38120;53.176;6.614;2024-01-16T08:16:58;7.63;;;2.55;;
52126;SDS011;38120;53.176;6.614;2024-01-16T08:19:24;14.93;;;2.77;;
52126;SDS011;38120;53.176;6.614;2024-01-16T08:21:49;7.13;;;2.63;;
52126;SDS011;38120;53.176;6.614;2024-01-16T08:24:15;6.72;;;2.05;;
52126;SDS011;38120;53.176;6.614;2024-01-16T08:26:41;4.97;;;2.10;;
52126;SDS011;38120;53.176;6.614;2024-01-16T08:29:07;9.50;;;2.93;;
52126;SDS011;38120;53.176;6.614;2024-01-16T08:31:32;7.80;;;2.20;;
52126;SDS011;38120;53.176;6.614;2024-01-16T08:33:58;7.20;;;2.50;;
52126;SDS011;38120;53.176;6.614;2024-01-16T08:36:24;5.60;;;2.17;;
52126;SDS011;38120;53.176;6.614;2024-01-16T08:38:50;4.73;;;2.20;;
52126;SDS011;38120;53.176;6.614;2024-01-16T08:41:16;9.77;;;2.22;;
52126;SDS011;38120;53.176;6.614;2024-01-16T08:43:41;6.43;;;1.93;;
52126;SDS011;38120;53.176;6.614;2024-01-16T08:46:07;5.80;;;1.93;;
52126;SDS011;38120;53.176;6.614;2024-01-16T08:48:33;5.83;;;2.23;;
52126;SDS011;38120;53.176;6.614;2024-01-16T08:50:58;6.70;;;2.23;;
52126;SDS011;38120;53.176;6.614;2024-01-16T08:53:24;9.43;;;2.30;;
52126;SDS011;38120;53.176;6.614;2024-01-16T08:55:50;12.90;;;2.90;;
52126;SDS011;38120;53.176;6.614;2024-01-16T08:58:16;12.00;;;2.63;;
52126;SDS011;38120;53.176;6.614;2024-01-16T09:00:42;8.02;;;2.17;;
52126;SDS011;38120;53.176;6.614;2024-01-16T09:03:08;9.70;;;2.37;;
52126;SDS011;38120;53.176;6.614;2024-01-16T09:05:33;7.67;;;2.93;;
52126;SDS011;38120;53.176;6.614;2024-01-16T09:08:03;8.15;;;2.17;;
52126;SDS011;38120;53.176;6.614;2024-01-16T09:10:29;7.53;;;2.22;;
52126;SDS011;38120;53.176;6.614;2024-01-16T09:12:55;4.93;;;2.40;;
52126;SDS011;38120;53.176;6.614;2024-01-16T09:15:21;7.27;;;2.63;;
52126;SDS011;38120;53.176;6.614;2024-01-16T09:17:46;8.73;;;2.10;;
52126;SDS011;38120;53.176;6.614;2024-01-16T09:20:12;7.97;;;2.47;;
52126;SDS011;38120;53.176;6.614;2024-01-16T09:22:38;7.80;;;2.65;;
52126;SDS011;38120;53.176;6.614;2024-01-16T09:25:04;11.63;;;2.28;;
52126;SDS011;38120;53.176;6.614;2024-01-16T09:27:30;9.73;;;2.50;;
52126;SDS011;38120;53.176;6.614;2024-01-16T09:29:59;6.37;;;2.30;;
52126;SDS011;38120;53.176;6.614;2024-01-16T09:32:25;6.47;;;2.03;;
52126;SDS011;38120;53.176;6.614;2024-01-16T09:34:50;9.57;;;2.50;;
52126;SDS011;38120;53.176;6.614;2024-01-16T09:37:16;7.70;;;2.30;;
52126;SDS011;38120;53.176;6.614;2024-01-16T09:39:42;11.20;;;2.90;;
52126;SDS011;38120;53.176;6.614;2024-01-16T09:42:07;6.60;;;2.03;;
52126;SDS011;38120;53.176;6.614;2024-01-16T09:44:33;7.57;;;2.17;;
52126;SDS011;38120;53.176;6.614;2024-01-16T09:46:59;5.65;;;2.60;;
52126;SDS011;38120;53.176;6.614;2024-01-16T09:49:27;7.63;;;2.60;;
52126;SDS011;38120;53.176;6.614;2024-01-16T09:51:54;8.63;;;2.25;;
52126;SDS011;38120;53.176;6.614;2024-01-16T09:54:20;9.07;;;2.30;;
52126;SDS011;38120;53.176;6.614;2024-01-16T09:56:46;7.67;;;2.20;;
52126;SDS011;38120;53.176;6.614;2024-01-16T09:59:17;13.07;;;3.10;;
52126;SDS011;38120;53.176;6.614;2024-01-16T10:01:43;8.80;;;2.40;;
52126;SDS011;38120;53.176;6.614;2024-01-16T10:04:10;10.00;;;2.35;;
52126;SDS011;38120;53.176;6.614;2024-01-16T10:06:36;6.60;;;1.93;;
52126;SDS011;38120;53.176;6.614;2024-01-16T10:09:03;9.80;;;2.60;;
52126;SDS011;38120;53.176;6.614;2024-01-16T10:11:29;5.87;;;2.07;;
52126;SDS011;38120;53.176;6.614;2024-01-16T10:13:58;4.90;;;2.35;;
52126;SDS011;38120;53.176;6.614;2024-01-16T10:16:26;5.67;;;2.07;;
52126;SDS011;38120;53.176;6.614;2024-01-16T10:19:28;4.45;;;1.67;;
52126;SDS011;38120;53.176;6.614;2024-01-16T10:22:01;7.70;;;2.60;;
52126;SDS011;38120;53.176;6.614;2024-01-16T10:24:35;5.75;;;2.00;;
52126;SDS011;38120;53.176;6.614;2024-01-16T10:27:02;7.10;;;3.05;;
52126;SDS011;38120;53.176;6.614;2024-01-16T10:29:28;9.02;;;2.75;;
52126;SDS011;38120;53.176;6.614;2024-01-16T10:32:00;10.55;;;2.92;;
52126;SDS011;38120;53.176;6.614;2024-01-16T10:34:26;6.80;;;2.35;;
52126;SDS011;38120;53.176;6.614;2024-01-16T10:36:53;10.10;;;2.77;;
52126;SDS011;38120;53.176;6.614;2024-01-16T10:39:24;5.13;;;2.17;;
52126;SDS011;38120;53.176;6.614;2024-01-16T10:41:56;7.23;;;2.40;;
52126;SDS011;38120;53.176;6.614;2024-01-16T10:44:23;10.55;;;2.90;;
52126;SDS011;38120;53.176;6.614;2024-01-16T10:46:48;6.27;;;2.33;;
52126;SDS011;38120;53.176;6.614;2024-01-16T10:49:14;13.45;;;3.47;;
52126;SDS011;38120;53.176;6.614;2024-01-16T10:51:42;9.50;;;3.43;;
52126;SDS011;38120;53.176;6.614;2024-01-16T10:54:11;7.93;;;3.60;;
52126;SDS011;38120;53.176;6.614;2024-01-16T10:56:45;10.98;;;3.58;;
52126;SDS011;38120;53.176;6.614;2024-01-16T10:59:27;10.05;;;4.97;;
52126;SDS011;38120;53.176;6.614;2024-01-16T11:01:59;11.82;;;5.70;;
52126;SDS011;38120;53.176;6.614;2024-01-16T11:04:29;8.80;;;5.22;;
52126;SDS011;38120;53.176;6.614;2024-01-16T11:06:55;8.88;;;5.50;;
52126;SDS011;38120;53.176;6.614;2024-01-16T11:09:21;10.20;;;5.60;;
52126;SDS011;38120;53.176;6.614;2024-01-16T11:11:47;15.70;;;6.57;;
52126;SDS011;38120;53.176;6.614;2024-01-16T11:14:14;9.55;;;5.68;;
52126;SDS011;38120;53.176;6.614;2024-01-16T11:16:41;12.35;;;6.45;;
52126;SDS011;38120;53.176;6.614;2024-01-16T11:19:08;10.20;;;5.53;;
52126;SDS011;38120;53.176;6.614;2024-01-16T11:24:02;11.82;;;5.43;;
52126;SDS011;38120;53.176;6.614;2024-01-16T11:26:31;10.25;;;4.85;;
52126;SDS011;38120;53.176;6.614;2024-01-16T11:28:59;10.02;;;4.28;;
52126;SDS011;38120;53.176;6.614;2024-01-16T11:33:55;9.30;;;3.80;;
52126;SDS011;38120;53.176;6.614;2024-01-16T11:39:17;9.77;;;2.75;;
52126;SDS011;38120;53.176;6.614;2024-01-16T11:41:48;8.55;;;3.25;;
52126;SDS011;38120;53.176;6.614;2024-01-16T11:47:02;5.90;;;2.65;;
52126;SDS011;38120;53.176;6.614;2024-01-16T11:49:28;5.50;;;2.75;;
52126;SDS011;38120;53.176;6.614;2024-01-16T11:51:57;4.32;;;2.63;;
52126;SDS011;38120;53.176;6.614;2024-01-16T11:54:23;4.13;;;2.60;;
52126;SDS011;38120;53.176;6.614;2024-01-16T11:59:40;5.00;;;2.20;;
52126;SDS011;38120;53.176;6.614;2024-01-16T12:02:16;4.28;;;2.42;;
52126;SDS011;38120;53.176;6.614;2024-01-16T12:04:52;5.18;;;2.50;;
52126;SDS011;38120;53.176;6.614;2024-01-16T12:07:22;4.75;;;2.50;;
52126;SDS011;38120;53.176;6.614;2024-01-16T12:09:48;6.22;;;2.67;;
52126;SDS011;38120;53.176;6.614;2024-01-16T12:12:14;4.47;;;2.08;;
52126;SDS011;38120;53.176;6.614;2024-01-16T12:14:41;3.53;;;1.83;;
52126;SDS011;38120;53.176;6.614;2024-01-16T12:17:15;5.60;;;2.50;;
52126;SDS011;38120;53.176;6.614;2024-01-16T12:19:43;5.78;;;2.20;;
52126;SDS011;38120;53.176;6.614;2024-01-16T12:22:09;6.60;;;2.30;;
52126;SDS011;38120;53.176;6.614;2024-01-16T12:24:35;7.47;;;2.60;;
52126;SDS011;38120;53.176;6.614;2024-01-16T12:27:04;8.38;;;2.75;;
52126;SDS011;38120;53.176;6.614;2024-01-16T12:32:07;6.15;;;2.58;;
52126;SDS011;38120;53.176;6.614;2024-01-16T12:34:34;5.70;;;3.20;;
52126;SDS011;38120;53.176;6.614;2024-01-16T12:37:04;5.72;;;3.33;;
52126;SDS011;38120;53.176;6.614;2024-01-16T12:39:32;6.60;;;3.00;;
52126;SDS011;38120;53.176;6.614;2024-01-16T12:42:00;7.53;;;3.20;;
52126;SDS011;38120;53.176;6.614;2024-01-16T12:44:29;10.18;;;3.35;;
52126;SDS011;38120;53.176;6.614;2024-01-16T12:46:56;5.90;;;3.25;;
52126;SDS011;38120;53.176;6.614;2024-01-16T12:51:48;6.88;;;3.45;;
52126;SDS011;38120;53.176;6.614;2024-01-16T12:54:16;10.85;;;4.13;;
52126;SDS011;38120;53.176;6.614;2024-01-16T12:56:43;7.45;;;3.83;;
52126;SDS011;38120;53.176;6.614;2024-01-16T12:59:13;12.73;;;4.20;;
52126;SDS011;38120;53.176;6.614;2024-01-16T13:01:39;10.82;;;4.38;;
52126;SDS011;38120;53.176;6.614;2024-01-16T13:04:09;8.65;;;5.10;;
52126;SDS011;38120;53.176;6.614;2024-01-16T13:09:06;8.73;;;4.28;;
52126;SDS011;38120;53.176;6.614;2024-01-16T13:11:53;9.43;;;4.40;;
52126;SDS011;38120;53.176;6.614;2024-01-16T13:14:21;10.05;;;4.55;;
52126;SDS011;38120;53.176;6.614;2024-01-16T13:16:47;10.88;;;4.68;;
52126;SDS011;38120;53.176;6.614;2024-01-16T13:19:20;8.82;;;4.22;;
52126;SDS011;38120;53.176;6.614;2024-01-16T13:21:46;11.38;;;5.57;;
52126;SDS011;38120;53.176;6.614;2024-01-16T13:26:39;8.60;;;4.32;;
52126;SDS011;38120;53.176;6.614;2024-01-16T13:29:05;9.77;;;4.70;;
52126;SDS011;38120;53.176;6.614;2024-01-16T13:31:34;13.15;;;4.57;;
52126;SDS011;38120;53.176;6.614;2024-01-16T13:34:00;11.77;;;6.07;;
52126;SDS011;38120;53.176;6.614;2024-01-16T13:36:26;9.10;;;5.17;;
52126;SDS011;38120;53.176;6.614;2024-01-16T13:38:53;10.20;;;4.55;;
52126;SDS011;38120;53.176;6.614;2024-01-16T13:41:19;12.13;;;5.00;;
52126;SDS011;38120;53.176;6.614;2024-01-16T13:43:46;14.63;;;5.38;;
52126;SDS011;38120;53.176;6.614;2024-01-16T13:46:14;10.48;;;4.82;;
52126;SDS011;38120;53.176;6.614;2024-01-16T13:48:42;9.95;;;4.35;;
52126;SDS011;38120;53.176;6.614;2024-01-16T13:51:08;10.95;;;5.28;;
52126;SDS011;38120;53.176;6.614;2024-01-16T13:53:34;9.00;;;4.63;;
52126;SDS011;38120;53.176;6.614;2024-01-16T13:56:00;8.05;;;4.85;;
52126;SDS011;38120;53.176;6.614;2024-01-16T13:58:25;12.07;;;4.70;;
52126;SDS011;38120;53.176;6.614;2024-01-16T14:00:51;7.53;;;4.50;;
52126;SDS011;38120;53.176;6.614;2024-01-16T14:03:17;10.20;;;4.67;;
52126;SDS011;38120;53.176;6.614;2024-01-16T14:05:45;10.05;;;4.38;;
52126;SDS011;38120;53.176;6.614;2024-01-16T14:08:11;14.85;;;4.80;;
52126;SDS011;38120;53.176;6.614;2024-01-16T14:10:38;9.02;;;4.57;;
52126;SDS011;38120;53.176;6.614;2024-01-16T14:13:04;8.13;;;5.00;;
52126;SDS011;38120;53.176;6.614;2024-01-16T14:15:30;8.87;;;4.07;;
52126;SDS011;38120;53.176;6.614;2024-01-16T14:17:56;11.35;;;5.40;;
52126;SDS011;38120;53.176;6.614;2024-01-16T14:20:23;10.57;;;4.72;;
52126;SDS011;38120;53.176;6.614;2024-01-16T14:22:51;10.10;;;5.30;;
52126;SDS011;38120;53.176;6.614;2024-01-16T14:25:18;12.05;;;5.60;;
52126;SDS011;38120;53.176;6.614;2024-01-16T14:27:45;9.93;;;5.22;;
52126;SDS011;38120;53.176;6.614;2024-01-16T14:30:13;11.48;;;5.43;;
52126;SDS011;38120;53.176;6.614;2024-01-16T14:32:41;11.02;;;5.38;;
52126;SDS011;38120;53.176;6.614;2024-01-16T14:35:09;11.07;;;4.50;;
52126;SDS011;38120;53.176;6.614;2024-01-16T14:37:36;11.25;;;5.32;;
52126;SDS011;38120;53.176;6.614;2024-01-16T14:40:03;11.30;;;4.88;;
52126;SDS011;38120;53.176;6.614;2024-01-16T14:42:45;11.48;;;4.90;;
52126;SDS011;38120;53.176;6.614;2024-01-16T14:45:14;10.13;;;4.22;;
52126;SDS011;38120;53.176;6.614;2024-01-16T14:47:40;10.70;;;3.83;;
52126;SDS011;38120;53.176;6.614;2024-01-16T14:50:07;10.63;;;5.00;;
52126;SDS011;38120;53.176;6.614;2024-01-16T14:52:33;11.30;;;4.78;;
52126;SDS011;38120;53.176;6.614;2024-01-16T14:55:02;10.80;;;4.38;;
52126;SDS011;38120;53.176;6.614;2024-01-16T14:57:34;11.45;;;4.68;;
52126;SDS011;38120;53.176;6.614;2024-01-16T15:00:23;11.40;;;3.88;;
52126;SDS011;38120;53.176;6.614;2024-01-16T15:02:55;8.03;;;3.93;;
52126;SDS011;38120;53.176;6.614;2024-01-16T15:05:25;13.88;;;3.65;;
52126;SDS011;38120;53.176;6.614;2024-01-16T15:07:51;7.65;;;2.95;;